Time;durP1;ratioP1;P1;durP2;ratioP2;P2;SDS_P1;SDS_P2;PMS_P1;PMS_P2;Temp;Humidity;BMP_temperature;BMP_pressure;BME280_temperature;BME280_humidity;BME280_pressure;Samples;Min_cycle;Max_cycle;Signal;HPM_P1;HPM_P2
2022/05/25 00:02:19;;;;;;;4.80;0.70;;;;;;;;;;5023221;28;20480;-72
2022/05/25 00:04:45;;;;;;;7.53;0.88;;;;;;;;;;5024466;28;20470;-72
2022/05/25 00:07:12;;;;;;;3.30;0.82;;;;;;;;;;5021436;28;20044;-72
2022/05/25 00:09:38;;;;;;;6.80;1.08;;;;;;;;;;5021832;28;20033;-72
2022/05/25 00:12:05;;;;;;;7.35;1.20;;;;;;;;;;5024265;28;20048;-72
2022/05/25 00:14:32;;;;;;;3.30;0.90;;;;;;;;;;5015316;28;20495;-72
2022/05/25 00:16:58;;;;;;;3.80;0.68;;;;;;;;;;5023249;28;20026;-72
2022/05/25 00:22:09;;;;;;;4.47;0.80;;;;;;;;;;5023026;28;20132;-72
2022/05/25 00:24:36;;;;;;;6.22;0.90;;;;;;;;;;5024859;28;20038;-72
2022/05/25 00:27:02;;;;;;;5.97;0.70;;;;;;;;;;5024138;28;20148;-72
2022/05/25 00:29:28;;;;;;;6.20;0.70;;;;;;;;;;5020296;28;20095;-72
2022/05/25 00:31:54;;;;;;;4.00;0.65;;;;;;;;;;5021787;28;20029;-72
2022/05/25 00:34:20;;;;;;;5.13;0.60;;;;;;;;;;5020890;28;20041;-72
2022/05/25 00:36:46;;;;;;;2.25;0.50;;;;;;;;;;5027169;28;20466;-72
2022/05/25 00:39:12;;;;;;;2.85;0.73;;;;;;;;;;5022543;28;20052;-72
2022/05/25 00:41:38;;;;;;;2.40;0.80;;;;;;;;;;5024651;28;20037;-72
2022/05/25 00:44:05;;;;;;;3.05;0.60;;;;;;;;;;5025977;28;20041;-72
2022/05/25 00:46:32;;;;;;;2.53;0.70;;;;;;;;;;5024455;28;20040;-72
2022/05/25 00:49:04;;;;;;;2.10;0.82;;;;;;;;;;5027099;28;20459;-72
2022/05/25 00:51:37;;;;;;;5.82;0.88;;;;;;;;;;5021998;28;20519;-72
2022/05/25 00:54:07;;;;;;;1.70;0.68;;;;;;;;;;5022376;28;20029;-72
2022/05/25 00:56:34;;;;;;;2.75;0.90;;;;;;;;;;5021287;28;20112;-72
2022/05/25 00:59:03;;;;;;;4.30;1.23;;;;;;;;;;5023330;28;20076;-72
2022/05/25 01:01:29;;;;;;;2.28;0.80;;;;;;;;;;5020388;28;20037;-72
2022/05/25 01:03:55;;;;;;;3.03;0.80;;;;;;;;;;5022140;28;20033;-72
2022/05/25 01:06:24;;;;;;;8.55;1.10;;;;;;;;;;5024816;28;20083;-72
2022/05/25 01:08:50;;;;;;;3.22;1.00;;;;;;;;;;5021399;28;20040;-72
2022/05/25 01:11:40;;;;;;;8.77;1.05;;;;;;;;;;5024019;28;20034;-72
2022/05/25 01:14:16;;;;;;;4.70;1.10;;;;;;;;;;5015433;28;20057;-72
2022/05/25 01:17:01;;;;;;;4.80;1.60;;;;;;;;;;5020082;28;20028;-71
2022/05/25 01:19:39;;;;;;;5.15;1.23;;;;;;;;;;5023760;28;20041;-72
2022/05/25 01:22:16;;;;;;;6.72;1.92;;;;;;;;;;5021414;28;20057;-72
2022/05/25 01:24:42;;;;;;;3.45;1.10;;;;;;;;;;5018942;28;20042;-72
2022/05/25 01:27:27;;;;;;;3.45;1.00;;;;;;;;;;5022286;28;20125;-72
2022/05/25 01:30:12;;;;;;;7.97;1.20;;;;;;;;;;5018539;28;20087;-72
2022/05/25 01:32:42;;;;;;;9.50;1.70;;;;;;;;;;5021339;28;20678;-72
2022/05/25 01:35:07;;;;;;;5.55;1.60;;;;;;;;;;5023957;28;20025;-72
2022/05/25 01:37:46;;;;;;;5.72;1.55;;;;;;;;;;5021502;28;20553;-72
2022/05/25 01:40:23;;;;;;;3.15;1.20;;;;;;;;;;5021099;28;20026;-71
2022/05/25 01:42:52;;;;;;;9.35;1.45;;;;;;;;;;5018924;28;20041;-72
2022/05/25 01:45:19;;;;;;;3.60;0.90;;;;;;;;;;5020047;28;20030;-72
2022/05/25 01:47:47;;;;;;;2.63;0.70;;;;;;;;;;5021468;28;20049;-72
2022/05/25 01:50:20;;;;;;;4.65;1.20;;;;;;;;;;5021487;28;20144;-71
2022/05/25 01:52:49;;;;;;;6.10;1.52;;;;;;;;;;5021254;28;20033;-72
2022/05/25 01:55:18;;;;;;;5.47;1.95;;;;;;;;;;5014958;28;20025;-72
2022/05/25 01:57:48;;;;;;;8.63;1.48;;;;;;;;;;5021166;28;20029;-72
2022/05/25 02:00:35;;;;;;;3.20;1.20;;;;;;;;;;5020880;28;20040;-72
2022/05/25 02:06:05;;;;;;;5.20;1.13;;;;;;;;;;5022279;28;20360;-72
2022/05/25 02:08:40;;;;;;;2.40;0.95;;;;;;;;;;5022502;28;20045;-72
2022/05/25 02:11:09;;;;;;;8.05;1.40;;;;;;;;;;5021945;28;20025;-72
2022/05/25 02:13:38;;;;;;;3.42;0.90;;;;;;;;;;5025348;28;20045;-72
2022/05/25 02:16:04;;;;;;;7.60;1.00;;;;;;;;;;5021496;28;20151;-72
2022/05/25 02:18:36;;;;;;;2.83;0.93;;;;;;;;;;5022217;28;20125;-72
2022/05/25 02:21:21;;;;;;;7.05;0.88;;;;;;;;;;5020199;28;20405;-72
2022/05/25 02:23:57;;;;;;;4.03;0.70;;;;;;;;;;5021417;28;20041;-72
2022/05/25 02:26:28;;;;;;;5.63;0.90;;;;;;;;;;5022469;28;20055;-72
2022/05/25 02:29:03;;;;;;;2.92;0.80;;;;;;;;;;5019915;28;20828;-72
2022/05/25 02:31:32;;;;;;;6.32;0.80;;;;;;;;;;5014956;28;20129;-72
2022/05/25 02:34:00;;;;;;;7.15;0.70;;;;;;;;;;5009611;28;20054;-72
2022/05/25 02:36:28;;;;;;;2.40;0.60;;;;;;;;;;5024844;28;20164;-72
2022/05/25 02:38:54;;;;;;;4.60;0.80;;;;;;;;;;5022831;28;20065;-72
2022/05/25 02:41:31;;;;;;;4.30;1.10;;;;;;;;;;5019907;28;20075;-72
2022/05/25 02:43:58;;;;;;;5.93;0.65;;;;;;;;;;5020231;28;20037;-72
2022/05/25 02:46:24;;;;;;;4.90;0.80;;;;;;;;;;5023083;28;20037;-72
2022/05/25 02:48:50;;;;;;;10.35;0.80;;;;;;;;;;5018852;28;20382;-72
2022/05/25 02:51:17;;;;;;;1.50;0.60;;;;;;;;;;5012673;28;20438;-72
2022/05/25 02:53:43;;;;;;;1.55;0.70;;;;;;;;;;5023636;28;20032;-72
2022/05/25 02:56:09;;;;;;;3.42;0.80;;;;;;;;;;5020050;28;20034;-72
2022/05/25 02:58:35;;;;;;;6.03;0.80;;;;;;;;;;5019534;28;20099;-72
2022/05/25 03:01:01;;;;;;;8.18;0.90;;;;;;;;;;5022201;28;20356;-72
2022/05/25 03:03:28;;;;;;;6.15;1.15;;;;;;;;;;5023944;28;20041;-72
2022/05/25 03:05:54;;;;;;;9.57;1.10;;;;;;;;;;5020927;28;20061;-72
2022/05/25 03:08:21;;;;;;;5.90;1.20;;;;;;;;;;5024189;28;20045;-72
2022/05/25 03:10:47;;;;;;;3.47;1.00;;;;;;;;;;5023640;28;20030;-72
2022/05/25 03:13:13;;;;;;;3.47;1.00;;;;;;;;;;5024335;28;21087;-72
2022/05/25 03:15:39;;;;;;;4.70;1.08;;;;;;;;;;5022369;28;20052;-72
2022/05/25 03:18:05;;;;;;;5.72;0.90;;;;;;;;;;5017667;28;20413;-72
2022/05/25 03:20:32;;;;;;;4.75;0.85;;;;;;;;;;5017036;28;20041;-72
2022/05/25 03:22:58;;;;;;;3.78;1.00;;;;;;;;;;5018543;28;20073;-72
2022/05/25 03:25:24;;;;;;;3.70;0.80;;;;;;;;;;5016409;28;20065;-72
2022/05/25 03:27:50;;;;;;;4.18;0.90;;;;;;;;;;5018118;28;20049;-72
2022/05/25 03:30:17;;;;;;;3.30;1.00;;;;;;;;;;5022602;28;20475;-72
2022/05/25 03:32:43;;;;;;;4.05;0.95;;;;;;;;;;5023404;28;20038;-72
2022/05/25 03:35:10;;;;;;;5.53;0.88;;;;;;;;;;5017621;28;20596;-72
2022/05/25 03:37:37;;;;;;;7.43;0.95;;;;;;;;;;5020832;28;20037;-72
2022/05/25 03:40:08;;;;;;;2.78;0.88;;;;;;;;;;5017147;28;20030;-72
2022/05/25 03:42:35;;;;;;;6.25;1.13;;;;;;;;;;5023177;28;20064;-72
2022/05/25 03:45:04;;;;;;;4.78;1.17;;;;;;;;;;5020920;28;20041;-72
2022/05/25 03:47:30;;;;;;;5.75;1.00;;;;;;;;;;5022551;28;20034;-72
2022/05/25 03:49:56;;;;;;;4.75;1.35;;;;;;;;;;5021771;28;20033;-72
2022/05/25 03:52:23;;;;;;;5.28;1.38;;;;;;;;;;5015243;28;20136;-72
2022/05/25 03:54:49;;;;;;;4.28;1.67;;;;;;;;;;5019161;28;20072;-72
2022/05/25 03:57:15;;;;;;;3.30;1.30;;;;;;;;;;5016712;28;20673;-72
2022/05/25 03:59:41;;;;;;;5.35;1.77;;;;;;;;;;5015225;28;20117;-72
2022/05/25 04:02:08;;;;;;;8.68;1.40;;;;;;;;;;5017979;28;20045;-72
2022/05/25 04:04:34;;;;;;;7.20;1.48;;;;;;;;;;5009341;28;20048;-72
2022/05/25 04:07:00;;;;;;;5.68;1.30;;;;;;;;;;5019130;28;20438;-72
2022/05/25 04:09:26;;;;;;;4.60;0.95;;;;;;;;;;5023810;28;20052;-72
2022/05/25 04:11:52;;;;;;;6.43;1.40;;;;;;;;;;5020245;28;20786;-72
2022/05/25 04:14:19;;;;;;;6.88;1.15;;;;;;;;;;5019589;28;20064;-72
2022/05/25 04:16:45;;;;;;;7.22;1.13;;;;;;;;;;5017086;28;20475;-72
2022/05/25 04:19:12;;;;;;;6.53;1.10;;;;;;;;;;5017964;28;20559;-72
2022/05/25 04:21:39;;;;;;;3.42;0.93;;;;;;;;;;5020669;28;20479;-72
2022/05/25 04:24:06;;;;;;;6.22;1.08;;;;;;;;;;5019055;28;20048;-71
2022/05/25 04:26:32;;;;;;;6.22;1.02;;;;;;;;;;5020364;28;20076;-71
2022/05/25 04:29:00;;;;;;;3.55;0.77;;;;;;;;;;5020283;28;20045;-71
2022/05/25 04:31:26;;;;;;;4.18;0.80;;;;;;;;;;5017458;28;20032;-72
2022/05/25 04:33:52;;;;;;;1.95;0.80;;;;;;;;;;5023535;28;20037;-72
2022/05/25 04:36:18;;;;;;;4.40;1.00;;;;;;;;;;5019827;28;20491;-72
2022/05/25 04:38:44;;;;;;;3.53;0.68;;;;;;;;;;5018736;28;20136;-71
2022/05/25 04:41:10;;;;;;;7.10;0.80;;;;;;;;;;5024675;28;20443;-72
2022/05/25 04:43:37;;;;;;;8.13;1.13;;;;;;;;;;5019955;28;20042;-72
2022/05/25 04:46:07;;;;;;;3.80;0.95;;;;;;;;;;5024391;28;20033;-71
2022/05/25 04:48:33;;;;;;;6.00;1.00;;;;;;;;;;5018044;28;20526;-72
2022/05/25 04:51:00;;;;;;;6.13;0.88;;;;;;;;;;5022049;28;20033;-72
2022/05/25 04:53:26;;;;;;;6.28;1.15;;;;;;;;;;5021719;28;20034;-71
2022/05/25 04:58:37;;;;;;;10.07;1.20;;;;;;;;;;5019308;28;20119;-71
2022/05/25 05:01:04;;;;;;;6.85;1.38;;;;;;;;;;5020432;28;20040;-72
2022/05/25 05:03:30;;;;;;;3.83;1.23;;;;;;;;;;5020709;28;20034;-72
2022/05/25 05:05:57;;;;;;;3.75;0.80;;;;;;;;;;5024496;28;20029;-72
2022/05/25 05:08:23;;;;;;;5.65;1.02;;;;;;;;;;5026195;28;20128;-71
2022/05/25 05:10:49;;;;;;;6.35;1.52;;;;;;;;;;5023196;28;20021;-72
2022/05/25 05:13:16;;;;;;;7.07;0.90;;;;;;;;;;5022259;28;20033;-72
2022/05/25 05:15:45;;;;;;;3.63;0.90;;;;;;;;;;5023179;28;20041;-72
2022/05/25 05:18:11;;;;;;;8.10;1.00;;;;;;;;;;5025316;28;20479;-72
2022/05/25 05:20:37;;;;;;;7.45;1.08;;;;;;;;;;5023540;28;20048;-72
2022/05/25 05:23:04;;;;;;;5.20;1.17;;;;;;;;;;5023856;28;20840;-72
2022/05/25 05:25:30;;;;;;;3.45;0.82;;;;;;;;;;5024586;28;20132;-72
2022/05/25 05:28:02;;;;;;;10.82;1.13;;;;;;;;;;5028501;28;20063;-71
2022/05/25 05:30:28;;;;;;;;;;;;;;;;;;5025552;28;20553;-72
2022/05/25 05:32:54;;;;;;;12.70;1.92;;;;;;;;;;5023804;28;20016;-72
2022/05/25 05:35:20;;;;;;;9.98;1.58;;;;;;;;;;5024229;28;20034;-72
2022/05/25 05:37:48;;;;;;;5.63;1.63;;;;;;;;;;5024625;28;20448;-72
2022/05/25 05:40:16;;;;;;;10.98;1.73;;;;;;;;;;5022632;28;20120;-72
2022/05/25 05:42:43;;;;;;;8.40;2.05;;;;;;;;;;5024633;28;20025;-72
2022/05/25 05:45:21;;;;;;;7.82;1.70;;;;;;;;;;5025539;28;20029;-72
2022/05/25 05:47:52;;;;;;;14.10;1.88;;;;;;;;;;5027334;28;20687;-72
2022/05/25 05:50:19;;;;;;;6.77;1.57;;;;;;;;;;5023472;28;20368;-72
2022/05/25 05:52:45;;;;;;;12.57;2.80;;;;;;;;;;5022879;28;20544;-71
2022/05/25 05:55:11;;;;;;;8.13;2.15;;;;;;;;;;5019959;28;20034;-72
2022/05/25 05:57:38;;;;;;;9.45;1.77;;;;;;;;;;5021503;28;20068;-72
2022/05/25 06:00:05;;;;;;;4.78;1.73;;;;;;;;;;5019823;28;20025;-71
2022/05/25 06:02:32;;;;;;;7.95;1.60;;;;;;;;;;5022473;28;20048;-72
2022/05/25 06:04:58;;;;;;;7.32;1.77;;;;;;;;;;5022617;28;20383;-72
2022/05/25 06:07:24;;;;;;;5.72;1.65;;;;;;;;;;5019437;28;20042;-71
2022/05/25 06:09:50;;;;;;;5.57;1.67;;;;;;;;;;5024853;28;20037;-73
2022/05/25 06:12:16;;;;;;;10.07;2.30;;;;;;;;;;5016532;28;20044;-71
2022/05/25 06:14:42;;;;;;;6.40;1.90;;;;;;;;;;5010326;28;20045;-72
2022/05/25 06:19:53;;;;;;;3.45;1.27;;;;;;;;;;5021757;28;20044;-72
2022/05/25 06:22:19;;;;;;;12.75;1.98;;;;;;;;;;5015561;28;20046;-71
2022/05/25 06:24:48;;;;;;;4.78;1.98;;;;;;;;;;5022151;28;20387;-71
2022/05/25 06:27:14;;;;;;;6.15;1.80;;;;;;;;;;5018797;28;20100;-71
2022/05/25 06:29:42;;;;;;;4.95;1.10;;;;;;;;;;5016412;28;20041;-71
2022/05/25 06:32:09;;;;;;;5.97;2.08;;;;;;;;;;5020799;28;20030;-72
2022/05/25 06:34:35;;;;;;;4.40;1.00;;;;;;;;;;5025576;28;20029;-71
2022/05/25 06:37:01;;;;;;;7.25;1.20;;;;;;;;;;5019700;28;20033;-72
2022/05/25 06:39:28;;;;;;;9.63;1.60;;;;;;;;;;5017101;28;20141;-72
2022/05/25 06:41:54;;;;;;;5.80;1.30;;;;;;;;;;5024716;28;20030;-71
2022/05/25 06:44:20;;;;;;;3.33;0.88;;;;;;;;;;5016537;28;20109;-72
2022/05/25 06:46:46;;;;;;;4.07;1.10;;;;;;;;;;5020614;28;20048;-71
2022/05/25 06:49:15;;;;;;;4.68;1.40;;;;;;;;;;5018079;28;20570;-71
2022/05/25 06:51:41;;;;;;;5.93;1.02;;;;;;;;;;5019806;28;20030;-71
2022/05/25 06:54:07;;;;;;;8.15;0.90;;;;;;;;;;5017392;28;20056;-71
2022/05/25 06:56:33;;;;;;;7.15;1.10;;;;;;;;;;5020607;28;20464;-71
2022/05/25 06:59:00;;;;;;;5.38;1.35;;;;;;;;;;5014235;28;20041;-71
2022/05/25 07:01:26;;;;;;;4.95;1.02;;;;;;;;;;5020315;28;20041;-71
2022/05/25 07:03:52;;;;;;;7.35;1.10;;;;;;;;;;5019558;28;20045;-71
2022/05/25 07:06:19;;;;;;;3.97;1.05;;;;;;;;;;5015697;28;20045;-71
2022/05/25 07:08:45;;;;;;;5.25;0.90;;;;;;;;;;5018911;28;20071;-71
2022/05/25 07:11:12;;;;;;;7.80;1.08;;;;;;;;;;5017567;28;20057;-71
2022/05/25 07:13:39;;;;;;;7.00;1.02;;;;;;;;;;5020925;28;20030;-71
2022/05/25 07:16:06;;;;;;;2.50;0.88;;;;;;;;;;5019001;28;20193;-72
2022/05/25 07:18:32;;;;;;;5.82;1.00;;;;;;;;;;5022002;28;20029;-71
2022/05/25 07:21:01;;;;;;;4.65;1.00;;;;;;;;;;5022541;28;20107;-71
2022/05/25 07:23:27;;;;;;;5.22;0.90;;;;;;;;;;5014538;28;20052;-72
2022/05/25 07:25:54;;;;;;;4.45;1.10;;;;;;;;;;5016586;28;20048;-72
2022/05/25 07:28:20;;;;;;;6.50;1.20;;;;;;;;;;5020339;28;20057;-72
2022/05/25 07:30:47;;;;;;;5.35;1.15;;;;;;;;;;5017130;28;20023;-72
2022/05/25 07:33:13;;;;;;;5.50;1.13;;;;;;;;;;5021074;28;20048;-71
2022/05/25 07:35:39;;;;;;;3.45;0.73;;;;;;;;;;5022964;28;20022;-71
2022/05/25 07:38:05;;;;;;;4.95;0.90;;;;;;;;;;5015106;28;20034;-72
2022/05/25 07:40:33;;;;;;;3.78;1.00;;;;;;;;;;5011913;28;20038;-72
2022/05/25 07:43:02;;;;;;;4.75;0.80;;;;;;;;;;5021614;28;20041;-72
2022/05/25 07:45:28;;;;;;;4.90;1.30;;;;;;;;;;5017761;28;20037;-72
2022/05/25 07:47:54;;;;;;;4.60;1.85;;;;;;;;;;5015663;28;20039;-71
2022/05/25 07:50:24;;;;;;;5.90;1.98;;;;;;;;;;5019977;28;20040;-72
2022/05/25 07:52:51;;;;;;;5.75;1.20;;;;;;;;;;5018681;28;20043;-71
2022/05/25 07:55:17;;;;;;;5.57;1.60;;;;;;;;;;5018110;28;20081;-72
2022/05/25 07:57:43;;;;;;;5.50;1.40;;;;;;;;;;5019967;28;20045;-72
2022/05/25 08:00:10;;;;;;;4.95;1.30;;;;;;;;;;5017319;28;20026;-71
2022/05/25 08:08:09;;;;;;;2.08;0.75;;;;;;;;;;5022862;28;20052;-71
2022/05/25 08:10:35;;;;;;;2.80;0.70;;;;;;;;;;5019330;28;20046;-71
2022/05/25 08:13:02;;;;;;;3.72;0.68;;;;;;;;;;5017589;28;20068;-71
2022/05/25 08:15:29;;;;;;;5.45;0.90;;;;;;;;;;5016225;28;20065;-71
2022/05/25 08:17:56;;;;;;;5.10;1.15;;;;;;;;;;5022669;28;20404;-71
2022/05/25 08:20:22;;;;;;;5.18;1.00;;;;;;;;;;5027080;28;20037;-71
2022/05/25 08:22:49;;;;;;;3.67;1.00;;;;;;;;;;5023533;28;20038;-71
2022/05/25 08:25:16;;;;;;;2.63;0.70;;;;;;;;;;5026659;28;20033;-72
2022/05/25 08:27:42;;;;;;;8.35;1.10;;;;;;;;;;5024286;28;20061;-71
2022/05/25 08:30:16;;;;;;;6.82;1.15;;;;;;;;;;5024837;28;20037;-72
2022/05/25 08:32:42;;;;;;;3.55;0.80;;;;;;;;;;5018250;28;20056;-71
2022/05/25 08:35:08;;;;;;;3.63;0.57;;;;;;;;;;5027012;28;20025;-71
2022/05/25 08:37:34;;;;;;;3.78;0.85;;;;;;;;;;5017669;28;20026;-71
2022/05/25 08:40:00;;;;;;;2.30;0.60;;;;;;;;;;5016996;28;20048;-71
2022/05/25 08:42:28;;;;;;;4.25;0.60;;;;;;;;;;5025576;28;20061;-71
2022/05/25 08:44:56;;;;;;;6.30;0.70;;;;;;;;;;5025655;28;20037;-72
2022/05/25 08:47:22;;;;;;;4.20;0.70;;;;;;;;;;5021599;28;20064;-71
2022/05/25 08:49:49;;;;;;;5.25;0.60;;;;;;;;;;5019959;28;20033;-71
2022/05/25 08:52:21;;;;;;;3.20;0.70;;;;;;;;;;5021779;28;20084;-72
2022/05/25 08:54:47;;;;;;;4.90;0.60;;;;;;;;;;5025826;28;20040;-71
2022/05/25 08:57:17;;;;;;;4.38;0.50;;;;;;;;;;5022062;28;20726;-71
2022/05/25 08:59:47;;;;;;;1.33;0.30;;;;;;;;;;5027232;28;20052;-71
2022/05/25 09:02:13;;;;;;;5.38;0.70;;;;;;;;;;5023068;28;20039;-71
2022/05/25 09:04:55;;;;;;;7.10;0.82;;;;;;;;;;5026242;28;20042;-71
2022/05/25 09:07:38;;;;;;;5.88;0.60;;;;;;;;;;5016563;28;20041;-71
2022/05/25 09:10:04;;;;;;;3.40;0.50;;;;;;;;;;5021204;28;20034;-72
2022/05/25 09:12:33;;;;;;;3.85;0.50;;;;;;;;;;5020681;28;20073;-71
2022/05/25 09:15:06;;;;;;;4.05;0.60;;;;;;;;;;5019218;28;20034;-72
2022/05/25 09:17:40;;;;;;;5.32;0.70;;;;;;;;;;5023172;28;20036;-72
2022/05/25 09:20:08;;;;;;;2.42;0.50;;;;;;;;;;5023617;28;20475;-71
2022/05/25 09:22:35;;;;;;;3.95;0.50;;;;;;;;;;5023797;28;20034;-72
2022/05/25 09:25:02;;;;;;;4.75;0.50;;;;;;;;;;5011951;28;20527;-71
2022/05/25 09:27:31;;;;;;;4.70;0.50;;;;;;;;;;5017789;28;20081;-71
2022/05/25 09:29:59;;;;;;;2.92;0.50;;;;;;;;;;5023758;28;20859;-71
2022/05/25 09:32:35;;;;;;;1.42;0.40;;;;;;;;;;5014244;28;20046;-71
2022/05/25 09:35:06;;;;;;;2.58;0.68;;;;;;;;;;5023846;28;20043;-71
2022/05/25 09:37:32;;;;;;;4.57;0.57;;;;;;;;;;5022824;28;20045;-71
2022/05/25 09:40:01;;;;;;;2.78;0.40;;;;;;;;;;5021974;28;20041;-72
2022/05/25 09:42:32;;;;;;;2.92;0.45;;;;;;;;;;5020063;28;20045;-71
2022/05/25 09:45:00;;;;;;;1.65;0.40;;;;;;;;;;5021299;28;20033;-71
2022/05/25 09:47:29;;;;;;;4.18;0.40;;;;;;;;;;5022913;28;20033;-72
2022/05/25 09:49:58;;;;;;;3.33;0.90;;;;;;;;;;5020929;28;20536;-71
2022/05/25 09:52:35;;;;;;;6.25;0.80;;;;;;;;;;5024404;28;20451;-71
2022/05/25 09:55:11;;;;;;;5.78;0.57;;;;;;;;;;5023858;28;20029;-71
2022/05/25 09:57:39;;;;;;;4.80;0.63;;;;;;;;;;5019666;28;20128;-72
2022/05/25 10:00:05;;;;;;;3.25;0.50;;;;;;;;;;5019792;28;20152;-71
2022/05/25 10:02:36;;;;;;;2.95;0.40;;;;;;;;;;5026098;28;20071;-71
2022/05/25 10:05:09;;;;;;;3.88;0.40;;;;;;;;;;5020274;28;20479;-71
2022/05/25 10:07:37;;;;;;;1.40;0.30;;;;;;;;;;5018524;28;20068;-71
2022/05/25 10:10:05;;;;;;;4.22;0.60;;;;;;;;;;5016143;28;20034;-72
2022/05/25 10:12:31;;;;;;;6.60;0.60;;;;;;;;;;5020226;28;20864;-71
2022/05/25 10:15:08;;;;;;;5.30;0.60;;;;;;;;;;5018366;28;20076;-71
2022/05/25 10:17:34;;;;;;;3.78;0.60;;;;;;;;;;5021151;28;20124;-73
2022/05/25 10:20:00;;;;;;;3.17;0.43;;;;;;;;;;5022114;28;20037;-72
2022/05/25 10:22:31;;;;;;;3.08;0.60;;;;;;;;;;5019934;28;20033;-72
2022/05/25 10:25:09;;;;;;;5.88;0.50;;;;;;;;;;5019606;28;20037;-72
2022/05/25 10:27:40;;;;;;;1.58;0.40;;;;;;;;;;5018799;28;20045;-72
2022/05/25 10:38:46;;;;;;;3.25;0.43;;;;;;;;;;5020563;28;20043;-72
2022/05/25 10:44:05;;;;;;;2.70;0.30;;;;;;;;;;5018494;28;20049;-72
2022/05/25 10:46:32;;;;;;;3.88;0.57;;;;;;;;;;5023648;28;20033;-72
2022/05/25 10:49:09;;;;;;;2.25;0.40;;;;;;;;;;5023377;28;20037;-72
2022/05/25 10:51:44;;;;;;;2.67;0.40;;;;;;;;;;5019165;28;20040;-72
2022/05/25 10:54:45;;;;;;;4.25;0.50;;;;;;;;;;5016945;28;20048;-72
2022/05/25 10:57:29;;;;;;;2.42;0.40;;;;;;;;;;5020293;28;20041;-72
2022/05/25 11:00:03;;;;;;;2.85;0.30;;;;;;;;;;5016678;28;20026;-72
2022/05/25 11:02:42;;;;;;;4.25;0.50;;;;;;;;;;5018048;28;20057;-72
2022/05/25 11:05:27;;;;;;;2.17;0.40;;;;;;;;;;5021551;28;20481;-72
2022/05/25 11:08:04;;;;;;;1.85;0.50;;;;;;;;;;5015524;28;20084;-72
2022/05/25 11:10:30;;;;;;;1.98;0.43;;;;;;;;;;5020464;28;20026;-72
2022/05/25 11:13:03;;;;;;;3.70;0.40;;;;;;;;;;5020496;28;20037;-72
2022/05/25 11:15:48;;;;;;;1.58;0.30;;;;;;;;;;5020996;28;20467;-72
2022/05/25 11:18:34;;;;;;;2.70;0.35;;;;;;;;;;5019938;28;20037;-72
2022/05/25 11:21:19;;;;;;;1.48;0.35;;;;;;;;;;5020318;28;20775;-72
2022/05/25 11:23:48;;;;;;;3.10;0.50;;;;;;;;;;5020025;28;20037;-72
2022/05/25 11:26:33;;;;;;;4.82;0.50;;;;;;;;;;5013776;28;20108;-73
2022/05/25 11:29:19;;;;;;;4.47;0.30;;;;;;;;;;5017691;28;20085;-72
2022/05/25 11:31:49;;;;;;;1.92;0.30;;;;;;;;;;4992487;28;20396;-72
2022/05/25 11:34:28;;;;;;;3.95;0.50;;;;;;;;;;5020811;28;20522;-72
2022/05/25 11:37:03;;;;;;;5.78;0.50;;;;;;;;;;5014189;28;20053;-72
2022/05/25 11:39:29;;;;;;;5.85;0.40;;;;;;;;;;5036263;28;20589;-72
2022/05/25 11:41:55;;;;;;;4.38;0.40;;;;;;;;;;5018691;28;20769;-72
2022/05/25 11:44:21;;;;;;;8.38;0.85;;;;;;;;;;5012974;28;20076;-72
2022/05/25 11:46:49;;;;;;;4.28;0.38;;;;;;;;;;5022533;28;20859;-72
2022/05/25 11:49:18;;;;;;;2.45;0.47;;;;;;;;;;5023689;28;20025;-72
2022/05/25 11:51:52;;;;;;;5.45;0.30;;;;;;;;;;5021595;28;20034;-72
2022/05/25 11:54:30;;;;;;;3.17;0.40;;;;;;;;;;5017750;28;20141;-72
2022/05/25 11:56:57;;;;;;;4.47;0.43;;;;;;;;;;5022950;28;20025;-72
2022/05/25 11:59:43;;;;;;;2.22;0.50;;;;;;;;;;5021012;28;20111;-72
2022/05/25 12:02:09;;;;;;;2.38;0.50;;;;;;;;;;5018709;28;20116;-72
2022/05/25 12:04:54;;;;;;;2.30;0.43;;;;;;;;;;5022716;28;20105;-72
2022/05/25 12:07:38;;;;;;;3.47;0.50;;;;;;;;;;5019242;28;20045;-72
2022/05/25 12:10:25;;;;;;;4.38;0.40;;;;;;;;;;5015142;28;20450;-72
2022/05/25 12:12:56;;;;;;;2.67;0.30;;;;;;;;;;5023189;28;20092;-72
2022/05/25 12:15:25;;;;;;;3.88;0.68;;;;;;;;;;5026584;28;20033;-72
2022/05/25 12:18:07;;;;;;;2.22;0.40;;;;;;;;;;5026121;28;20037;-72
2022/05/25 12:20:33;;;;;;;2.40;0.30;;;;;;;;;;5023059;28;20048;-72
2022/05/25 12:23:01;;;;;;;3.05;0.40;;;;;;;;;;5018021;28;20053;-72
2022/05/25 12:25:27;;;;;;;3.33;0.60;;;;;;;;;;5023821;28;20144;-72
2022/05/25 12:27:55;;;;;;;2.35;0.30;;;;;;;;;;5021140;28;20132;-72
2022/05/25 12:30:33;;;;;;;3.22;0.50;;;;;;;;;;5018348;28;20065;-72
2022/05/25 12:33:00;;;;;;;2.90;0.50;;;;;;;;;;5025176;28;20590;-72
2022/05/25 12:35:27;;;;;;;2.78;0.50;;;;;;;;;;5024235;28;20084;-72
2022/05/25 12:37:53;;;;;;;2.78;0.28;;;;;;;;;;5021740;28;20034;-72
2022/05/25 12:40:25;;;;;;;2.47;0.22;;;;;;;;;;5021067;28;20084;-72
2022/05/25 12:42:51;;;;;;;3.00;0.43;;;;;;;;;;5017518;28;20837;-72
2022/05/25 12:48:30;;;;;;;2.72;0.57;;;;;;;;;;5025195;28;20048;-72
2022/05/25 12:51:10;;;;;;;1.55;0.30;;;;;;;;;;5016420;28;20029;-72
2022/05/25 12:53:48;;;;;;;2.47;0.45;;;;;;;;;;5019626;28;20028;-72
2022/05/25 12:56:32;;;;;;;5.60;0.70;;;;;;;;;;5020063;28;20048;-72
2022/05/25 12:59:05;;;;;;;4.05;0.40;;;;;;;;;;5025742;28;20418;-72
2022/05/25 13:01:36;;;;;;;1.25;0.30;;;;;;;;;;5023104;28;20037;-72
2022/05/25 13:04:21;;;;;;;6.20;0.47;;;;;;;;;;5020308;28;20030;-72
2022/05/25 13:06:48;;;;;;;3.67;0.55;;;;;;;;;;5024436;28;20037;-72
2022/05/25 13:09:34;;;;;;;3.00;0.50;;;;;;;;;;5022707;28;20029;-72
2022/05/25 13:12:20;;;;;;;3.40;0.43;;;;;;;;;;5019019;28;20136;-72
2022/05/25 13:14:46;;;;;;;1.35;0.40;;;;;;;;;;5024340;28;20029;-72
2022/05/25 13:17:32;;;;;;;4.45;0.40;;;;;;;;;;5019629;28;20042;-72
2022/05/25 13:19:58;;;;;;;1.90;0.50;;;;;;;;;;5020413;28;20411;-72
2022/05/25 13:22:27;;;;;;;1.33;0.40;;;;;;;;;;5024125;28;20040;-72
2022/05/25 13:24:53;;;;;;;9.07;0.50;;;;;;;;;;5020484;28;20068;-72
2022/05/25 13:27:25;;;;;;;1.70;0.52;;;;;;;;;;5018909;28;20061;-72
2022/05/25 13:29:54;;;;;;;3.92;0.60;;;;;;;;;;5019783;28;20528;-72
2022/05/25 13:32:39;;;;;;;2.70;0.30;;;;;;;;;;5020182;28;20030;-72
2022/05/25 13:35:15;;;;;;;3.10;0.30;;;;;;;;;;5024720;28;20029;-72
2022/05/25 13:37:41;;;;;;;2.60;0.60;;;;;;;;;;5019667;28;20031;-72
2022/05/25 13:40:11;;;;;;;1.70;0.30;;;;;;;;;;5025496;28;20070;-72
2022/05/25 13:42:42;;;;;;;3.08;0.35;;;;;;;;;;5021572;28;20057;-72
2022/05/25 13:45:10;;;;;;;2.08;0.30;;;;;;;;;;5021810;28;20040;-72
2022/05/25 13:47:36;;;;;;;2.42;0.40;;;;;;;;;;5018762;28;20033;-72
2022/05/25 13:50:02;;;;;;;0.63;0.30;;;;;;;;;;5022813;28;20030;-72
2022/05/25 13:52:30;;;;;;;3.35;0.60;;;;;;;;;;5020730;28;20053;-72
2022/05/25 13:55:02;;;;;;;2.22;0.40;;;;;;;;;;5020965;28;20796;-72
2022/05/25 13:57:31;;;;;;;2.92;0.40;;;;;;;;;;5016003;28;20738;-72
2022/05/25 13:59:57;;;;;;;2.17;0.45;;;;;;;;;;5023972;28;20041;-72
2022/05/25 14:02:25;;;;;;;0.70;0.17;;;;;;;;;;5018755;28;20044;-72
2022/05/25 14:04:53;;;;;;;2.03;0.30;;;;;;;;;;5021394;28;20568;-72
2022/05/25 14:07:31;;;;;;;1.27;0.20;;;;;;;;;;5021436;28;20129;-72
2022/05/25 14:11:02;;;;;;;0.98;0.20;;;;;;;;;;5019953;28;20029;-72
2022/05/25 14:13:10;;;;;;;2.17;0.35;;;;;;;;;;5010910;28;20033;-72
2022/05/25 14:15:38;;;;;;;2.80;0.20;;;;;;;;;;5020935;28;20092;-72
2022/05/25 14:18:04;;;;;;;5.32;0.30;;;;;;;;;;5023427;28;20022;-72
2022/05/25 14:20:30;;;;;;;0.95;0.20;;;;;;;;;;5022106;28;20042;-72
2022/05/25 14:22:56;;;;;;;2.47;0.47;;;;;;;;;;5020139;28;20034;-72
2022/05/25 14:25:30;;;;;;;0.73;0.30;;;;;;;;;;5019951;28;20049;-72
2022/05/25 14:27:56;;;;;;;0.70;0.20;;;;;;;;;;5019754;28;20061;-72
2022/05/25 14:30:25;;;;;;;2.15;0.30;;;;;;;;;;5017916;28;20049;-72
2022/05/25 14:33:22;;;;;;;3.38;0.40;;;;;;;;;;5018584;28;20040;-72
2022/05/25 14:35:54;;;;;;;2.63;0.30;;;;;;;;;;5008568;28;20087;-72
2022/05/25 14:38:21;;;;;;;3.15;0.30;;;;;;;;;;5012470;28;20047;-72
2022/05/25 14:40:49;;;;;;;2.95;0.40;;;;;;;;;;5020449;28;20041;-72
2022/05/25 14:43:33;;;;;;;1.92;0.40;;;;;;;;;;5021690;28;20037;-72
2022/05/25 14:46:04;;;;;;;1.67;0.35;;;;;;;;;;5022721;28;20037;-72
2022/05/25 14:48:30;;;;;;;3.08;0.32;;;;;;;;;;5021648;28;20079;-72
2022/05/25 14:50:58;;;;;;;2.58;0.40;;;;;;;;;;5023102;28;20037;-72
2022/05/25 14:53:31;;;;;;;4.32;0.50;;;;;;;;;;5016343;28;20033;-72
2022/05/25 14:56:01;;;;;;;1.55;0.30;;;;;;;;;;5016538;28;20727;-72
2022/05/25 14:58:36;;;;;;;1.67;0.45;;;;;;;;;;5019369;28;20021;-72
2022/05/25 15:01:02;;;;;;;1.90;0.40;;;;;;;;;;5018793;28;20056;-72
2022/05/25 15:03:28;;;;;;;2.80;0.40;;;;;;;;;;5017696;28;20037;-72
2022/05/25 15:06:00;;;;;;;5.60;0.40;;;;;;;;;;5023029;28;20379;-72
2022/05/25 15:08:27;;;;;;;;;;;;;;;;;;5025869;28;20029;-72
2022/05/25 15:10:56;;;;;;;4.30;0.50;;;;;;;;;;5019420;28;19921;-72
2022/05/25 15:13:25;;;;;;;4.03;0.40;;;;;;;;;;5017648;28;20451;-72
2022/05/25 15:18:51;;;;;;;2.65;0.30;;;;;;;;;;5019503;28;21923;-72
2022/05/25 15:21:22;;;;;;;2.13;0.35;;;;;;;;;;5020892;28;20033;-72
2022/05/25 15:23:55;;;;;;;3.50;0.40;;;;;;;;;;5020516;28;20036;-72
2022/05/25 15:26:23;;;;;;;2.10;0.43;;;;;;;;;;5021235;28;20177;-72
2022/05/25 15:28:49;;;;;;;1.55;0.40;;;;;;;;;;5016962;28;20025;-72
2022/05/25 15:31:16;;;;;;;3.80;0.40;;;;;;;;;;5019347;28;20616;-72
2022/05/25 15:33:44;;;;;;;4.03;0.30;;;;;;;;;;5019896;28;20675;-72